createdAt,value
2018-09-01T00:01:53.963Z,34.33
2018-09-01T00:04:21.775Z,40.10
2018-09-01T00:06:49.379Z,37.50
2018-09-01T00:09:17.027Z,36.60
2018-09-01T00:11:44.867Z,34.87
2018-09-01T00:14:12.484Z,36.83
2018-09-01T00:16:40.912Z,40.00
2018-09-01T00:19:08.540Z,37.60
2018-09-01T00:21:36.171Z,37.87
2018-09-01T00:24:10.268Z,38.20
2018-09-01T00:26:39.972Z,39.43
2018-09-01T00:29:07.662Z,37.80
2018-09-01T00:31:35.619Z,45.37
2018-09-01T00:34:03.666Z,47.00
2018-09-01T00:36:31.554Z,49.23
2018-09-01T00:39:04.814Z,50.20
2018-09-01T00:41:33.095Z,56.03
2018-09-01T00:44:00.779Z,53.73
2018-09-01T00:46:28.466Z,53.47
2018-09-01T00:48:56.109Z,54.47
2018-09-01T00:51:23.795Z,61.17
2018-09-01T00:53:51.577Z,57.13
2018-09-01T00:56:19.254Z,57.73
2018-09-01T00:58:47.021Z,54.93
2018-09-01T01:01:14.752Z,56.37
2018-09-01T01:03:42.484Z,59.33
2018-09-01T01:06:10.256Z,58.87
2018-09-01T01:08:37.930Z,61.23
2018-09-01T01:11:05.645Z,64.03
2018-09-01T01:13:33.543Z,63.47
2018-09-01T01:16:01.263Z,60.80
2018-09-01T01:18:28.986Z,60.97
2018-09-01T01:20:56.674Z,58.80
2018-09-01T01:23:24.559Z,60.90
2018-09-01T01:25:52.232Z,60.70
2018-09-01T01:28:19.998Z,59.57
2018-09-01T01:30:47.651Z,56.60
2018-09-01T01:33:15.292Z,55.93
2018-09-01T01:35:42.948Z,53.97
2018-09-01T01:38:10.619Z,52.70
2018-09-01T01:40:38.399Z,59.97
2018-09-01T01:43:06.101Z,53.07
2018-09-01T01:45:33.782Z,52.43
2018-09-01T01:48:01.445Z,53.73
2018-09-01T01:50:29.198Z,50.00
2018-09-01T01:52:56.807Z,51.20
2018-09-01T01:55:24.463Z,51.90
2018-09-01T01:57:52.098Z,49.53
2018-09-01T02:00:19.851Z,47.77
2018-09-01T02:02:48.038Z,45.10
2018-09-01T02:05:20.858Z,43.13
2018-09-01T02:07:49.694Z,43.93
2018-09-01T02:10:17.454Z,42.87
2018-09-01T02:12:45.128Z,40.33
2018-09-01T02:15:12.895Z,37.40
2018-09-01T02:17:40.537Z,22.63
2018-09-01T02:20:08.226Z,22.53
2018-09-01T02:22:35.875Z,22.87
2018-09-01T02:25:03.847Z,18.23
2018-09-01T02:27:31.567Z,20.93
2018-09-01T02:29:59.623Z,23.37
2018-09-01T02:32:27.266Z,22.77
2018-09-01T02:34:55.083Z,23.30
2018-09-01T02:37:22.810Z,24.70
2018-09-01T02:39:50.483Z,22.37
2018-09-01T02:42:18.171Z,23.83
2018-09-01T02:44:45.852Z,22.13
2018-09-01T02:47:13.647Z,25.93
2018-09-01T02:49:41.367Z,26.57
2018-09-01T02:52:09.179Z,22.70
2018-09-01T02:54:37.258Z,24.70
2018-09-01T02:57:05.581Z,23.83
2018-09-01T02:59:33.563Z,23.07
2018-09-01T03:02:01.261Z,22.27
2018-09-01T03:04:29.042Z,23.60
2018-09-01T03:06:59.871Z,24.73
2018-09-01T03:09:27.616Z,23.27
2018-09-01T03:11:56.731Z,23.00
2018-09-01T03:14:25.527Z,27.77
2018-09-01T03:16:54.208Z,23.20
2018-09-01T03:19:22.687Z,26.20
2018-09-01T03:21:50.533Z,26.00
2018-09-01T03:24:18.210Z,24.40
2018-09-01T03:26:45.907Z,24.97
2018-09-01T03:29:13.615Z,22.70
2018-09-01T03:31:41.296Z,26.83
2018-09-01T03:34:08.943Z,28.07
2018-09-01T03:36:36.835Z,25.60
2018-09-01T03:39:07.358Z,25.37
2018-09-01T03:41:35.469Z,25.43
2018-09-01T03:44:03.108Z,27.43
2018-09-01T03:46:31.967Z,25.77
2018-09-01T03:49:00.569Z,24.23
2018-09-01T03:51:28.719Z,27.00
2018-09-01T03:53:56.390Z,30.13
2018-09-01T03:56:24.043Z,27.10
2018-09-01T03:58:51.791Z,27.30
2018-09-01T04:01:19.473Z,27.07
2018-09-01T04:03:47.266Z,29.93
2018-09-01T04:06:14.908Z,25.60
2018-09-01T04:08:43.101Z,28.40
2018-09-01T04:11:10.758Z,28.40
2018-09-01T04:13:38.415Z,31.87
2018-09-01T04:16:06.054Z,31.93
2018-09-01T04:18:33.698Z,26.47
2018-09-01T04:21:01.378Z,31.80
2018-09-01T04:23:28.997Z,27.57
2018-09-01T04:25:56.668Z,28.00
2018-09-01T04:28:24.383Z,28.13
2018-09-01T04:30:52.030Z,26.43
2018-09-01T04:33:19.648Z,29.03
2018-09-01T04:35:47.554Z,32.83
2018-09-01T04:38:15.222Z,28.40
2018-09-01T04:40:43.754Z,28.13
2018-09-01T04:43:11.503Z,27.00
2018-09-01T04:45:39.795Z,31.33
2018-09-01T04:48:07.583Z,33.93
2018-09-01T04:50:35.363Z,37.37
2018-09-01T04:53:03.093Z,32.13
2018-09-01T04:55:30.918Z,30.00
2018-09-01T04:57:58.704Z,29.07
2018-09-01T05:00:26.397Z,31.23
2018-09-01T05:02:54.338Z,31.70
2018-09-01T05:05:22.073Z,29.77
2018-09-01T05:07:49.894Z,27.57
2018-09-01T05:10:18.482Z,25.03
2018-09-01T05:12:46.834Z,25.00
2018-09-01T05:15:14.616Z,22.73
2018-09-01T05:17:42.307Z,24.90
2018-09-01T05:20:10.006Z,24.63
2018-09-01T05:22:37.689Z,22.17
2018-09-01T05:25:06.249Z,22.27
2018-09-01T05:27:34.113Z,21.90
2018-09-01T05:30:01.860Z,21.33
2018-09-01T05:32:29.736Z,21.97
2018-09-01T05:34:57.447Z,22.63
2018-09-01T05:37:25.195Z,21.93
2018-09-01T05:39:52.991Z,20.47
2018-09-01T05:42:20.726Z,21.33
2018-09-01T05:44:48.425Z,21.93
2018-09-01T05:47:16.179Z,20.30
2018-09-01T05:49:44.085Z,19.00
2018-09-01T05:52:11.782Z,21.37
2018-09-01T05:54:40.024Z,20.07
2018-09-01T05:57:08.513Z,19.07
2018-09-01T05:59:36.304Z,20.63
2018-09-01T06:02:04.242Z,18.90
2018-09-01T06:04:31.971Z,17.63
2018-09-01T06:07:00.075Z,21.67
2018-09-01T06:09:27.816Z,21.70
2018-09-01T06:11:55.594Z,20.57
2018-09-01T06:14:23.359Z,17.27
2018-09-01T06:16:51.071Z,18.37
2018-09-01T06:19:18.783Z,17.30
2018-09-01T06:21:46.559Z,17.43
2018-09-01T06:24:14.280Z,17.70
2018-09-01T06:26:41.993Z,18.07
2018-09-01T06:29:13.128Z,16.43
2018-09-01T06:31:44.895Z,15.07
2018-09-01T06:34:12.607Z,15.53
2018-09-01T06:36:40.250Z,14.23
2018-09-01T06:39:08.525Z,13.47
2018-09-01T06:41:36.395Z,15.03
2018-09-01T06:44:04.686Z,12.20
2018-09-01T06:46:32.503Z,13.60
2018-09-01T06:49:00.199Z,13.60
2018-09-01T06:51:27.970Z,12.40
2018-09-01T06:53:55.623Z,13.00
2018-09-01T06:56:23.311Z,11.53
2018-09-01T06:58:51.081Z,14.00
2018-09-01T07:01:18.847Z,11.87
2018-09-01T07:03:46.507Z,12.33
2018-09-01T07:06:14.622Z,9.87
2018-09-01T07:08:42.406Z,10.33
2018-09-01T07:11:10.107Z,11.33
2018-09-01T07:13:37.891Z,10.37
2018-09-01T07:16:05.590Z,11.27
2018-09-01T07:18:33.331Z,9.77
2018-09-01T07:21:01.004Z,8.20
2018-09-01T07:23:28.744Z,8.07
2018-09-01T07:25:56.487Z,11.00
2018-09-01T07:28:24.472Z,6.67
2018-09-01T07:30:52.441Z,6.73
2018-09-01T07:33:20.015Z,7.43
2018-09-01T07:35:47.767Z,6.77
2018-09-01T07:38:15.544Z,5.63
2018-09-01T07:40:43.252Z,8.27
2018-09-01T07:43:10.912Z,6.40
2018-09-01T07:45:38.584Z,9.13
2018-09-01T07:48:06.334Z,7.83
2018-09-01T07:50:34.135Z,9.40
2018-09-01T07:53:01.888Z,7.00
2018-09-01T07:55:29.575Z,6.93
2018-09-01T07:57:57.303Z,9.60
2018-09-01T08:00:24.990Z,8.03
2018-09-01T08:02:52.652Z,6.80
2018-09-01T08:05:20.332Z,6.50
2018-09-01T08:07:48.028Z,6.53
2018-09-01T08:10:15.700Z,8.87
2018-09-01T08:12:43.303Z,5.53
2018-09-01T08:15:11.030Z,7.47
2018-09-01T08:17:38.727Z,7.73
2018-09-01T08:20:06.415Z,8.03
2018-09-01T08:22:34.939Z,5.00
2018-09-01T08:25:03.207Z,6.10
2018-09-01T08:27:30.870Z,5.40
2018-09-01T08:29:58.947Z,8.17
2018-09-01T08:32:26.635Z,6.03
2018-09-01T08:34:54.411Z,6.73
2018-09-01T08:37:22.090Z,5.27
2018-09-01T08:39:49.779Z,5.63
2018-09-01T08:42:17.419Z,6.53
2018-09-01T08:44:45.120Z,6.20
2018-09-01T08:47:12.748Z,7.47
2018-09-01T08:49:40.365Z,4.97
2018-09-01T08:52:08.027Z,6.63
2018-09-01T08:54:35.662Z,6.47
2018-09-01T08:57:03.423Z,4.50
2018-09-01T08:59:31.572Z,5.97
2018-09-01T09:01:59.218Z,4.70
2018-09-01T09:04:26.930Z,4.77
2018-09-01T09:06:54.563Z,5.50
2018-09-01T09:09:22.379Z,5.83
2018-09-01T09:11:50.084Z,6.77
2018-09-01T09:14:17.795Z,4.27
2018-09-01T09:16:45.608Z,6.10
2018-09-01T09:19:13.236Z,5.80
2018-09-01T09:21:41.206Z,6.20
2018-09-01T09:24:08.959Z,5.47
2018-09-01T09:26:36.674Z,5.70
2018-09-01T09:29:04.388Z,5.20
2018-09-01T09:31:32.636Z,3.70
2018-09-01T09:34:00.378Z,4.87
2018-09-01T09:36:28.099Z,5.43
2018-09-01T09:38:56.051Z,4.70
2018-09-01T09:41:23.854Z,6.03
2018-09-01T09:43:51.541Z,3.83
2018-09-01T09:46:19.369Z,4.30
2018-09-01T09:48:47.099Z,5.80
2018-09-01T09:51:14.832Z,5.53
2018-09-01T09:53:42.704Z,4.40
2018-09-01T09:56:10.439Z,4.23
2018-09-01T09:58:38.208Z,3.53
2018-09-01T10:01:10.693Z,6.97
2018-09-01T10:03:38.551Z,5.23
2018-09-01T10:06:06.276Z,5.63
2018-09-01T10:08:34.063Z,4.40
2018-09-01T10:11:01.998Z,7.97
2018-09-01T10:13:29.893Z,4.13
2018-09-01T10:15:57.737Z,4.00
2018-09-01T10:18:25.405Z,6.30
2018-09-01T10:20:53.476Z,3.70
2018-09-01T10:23:21.545Z,5.27
2018-09-01T10:25:49.248Z,3.13
2018-09-01T10:28:16.948Z,4.93
2018-09-01T10:30:44.731Z,3.70
2018-09-01T10:33:12.485Z,4.60
2018-09-01T10:35:40.351Z,4.77
2018-09-01T10:38:08.087Z,2.97
2018-09-01T10:40:35.758Z,3.90
2018-09-01T10:43:03.453Z,3.50
2018-09-01T10:45:31.207Z,4.33
2018-09-01T10:47:58.903Z,3.97
2018-09-01T10:50:26.612Z,4.30
2018-09-01T10:52:54.912Z,4.03
2018-09-01T10:55:22.582Z,3.20
2018-09-01T10:57:50.651Z,4.90
2018-09-01T11:00:25.155Z,6.10
2018-09-01T11:02:52.864Z,5.03
2018-09-01T11:05:21.177Z,5.73
2018-09-01T11:07:49.100Z,4.90
2018-09-01T11:10:17.023Z,6.37
2018-09-01T11:12:44.766Z,4.37
2018-09-01T11:15:13.613Z,4.83
2018-09-01T11:17:41.354Z,6.47
2018-09-01T11:20:09.310Z,3.57
2018-09-01T11:22:37.177Z,5.40
2018-09-01T11:25:04.899Z,4.47
2018-09-01T11:27:32.644Z,6.67
2018-09-01T11:30:00.315Z,5.87
2018-09-01T11:32:28.175Z,5.37
2018-09-01T11:34:55.862Z,3.23
2018-09-01T11:37:23.607Z,2.80
2018-09-01T11:39:51.324Z,4.27
2018-09-01T11:42:19.211Z,7.57
2018-09-01T11:44:47.094Z,5.90
2018-09-01T11:47:15.225Z,5.40
2018-09-01T11:49:43.150Z,6.17
2018-09-01T11:52:11.088Z,5.73
2018-09-01T11:54:38.809Z,4.37
2018-09-01T11:57:06.492Z,7.37
2018-09-01T11:59:35.286Z,4.37
2018-09-01T12:02:03.639Z,3.57
2018-09-01T12:04:31.423Z,5.80
2018-09-01T12:06:59.091Z,4.37
2018-09-01T12:09:26.887Z,5.00
2018-09-01T12:11:54.733Z,4.20
2018-09-01T12:14:22.458Z,5.33
2018-09-01T12:16:50.163Z,3.93
2018-09-01T12:19:17.844Z,3.27
2018-09-01T12:21:45.737Z,6.83
2018-09-01T12:24:13.584Z,5.30
2018-09-01T12:26:41.291Z,7.07
2018-09-01T12:29:08.987Z,4.30
2018-09-01T12:31:36.676Z,4.67
2018-09-01T12:34:04.467Z,4.33
2018-09-01T12:36:32.160Z,3.30
2018-09-01T12:39:01.554Z,2.77
2018-09-01T12:41:29.238Z,5.50
2018-09-01T12:43:57.169Z,4.97
2018-09-01T12:46:24.974Z,3.50
2018-09-01T12:48:52.735Z,5.00
2018-09-01T12:51:20.471Z,4.83
2018-09-01T12:53:49.259Z,4.87
2018-09-01T12:56:17.250Z,3.87
2018-09-01T12:58:44.948Z,4.07
2018-09-01T13:01:12.648Z,3.80
2018-09-01T13:03:40.466Z,3.67
2018-09-01T13:06:09.674Z,3.70
2018-09-01T13:08:37.364Z,3.40
2018-09-01T13:11:05.730Z,5.27
2018-09-01T13:13:33.409Z,4.87
2018-09-01T13:16:01.417Z,4.90
2018-09-01T13:18:29.192Z,7.30
2018-09-01T13:20:57.527Z,3.57
2018-09-01T13:23:25.771Z,4.17
2018-09-01T13:25:53.775Z,5.13
2018-09-01T13:28:21.482Z,5.67
2018-09-01T13:30:49.695Z,3.13
2018-09-01T13:33:17.404Z,4.40
2018-09-01T13:35:45.509Z,4.57
2018-09-01T13:38:13.239Z,7.47
2018-09-01T13:40:41.266Z,3.67
2018-09-01T13:43:09.188Z,3.37
2018-09-01T13:45:36.892Z,3.17
2018-09-01T13:48:04.816Z,4.30
2018-09-01T13:50:32.588Z,4.30
2018-09-01T13:53:00.259Z,3.57
2018-09-01T13:55:28.114Z,3.07
2018-09-01T13:57:56.200Z,4.30
2018-09-01T14:00:24.315Z,4.43
2018-09-01T14:02:52.030Z,3.27
2018-09-01T14:05:19.807Z,1.90
2018-09-01T14:07:47.526Z,6.20
2018-09-01T14:10:15.259Z,3.60
2018-09-01T14:12:42.923Z,4.73
2018-09-01T14:15:10.637Z,2.77
2018-09-01T14:17:38.360Z,4.73
2018-09-01T14:20:06.123Z,2.90
2018-09-01T14:22:33.835Z,3.87
2018-09-01T14:25:01.684Z,5.03
2018-09-01T14:27:29.406Z,4.07
2018-09-01T14:29:57.240Z,4.43
2018-09-01T14:32:25.007Z,3.23
2018-09-01T14:34:52.648Z,4.63
2018-09-01T14:37:20.400Z,2.33
2018-09-01T14:39:48.212Z,4.77
2018-09-01T14:42:15.854Z,4.03
2018-09-01T14:44:43.543Z,5.37
2018-09-01T14:47:11.296Z,3.97
2018-09-01T14:49:38.834Z,4.77
2018-09-01T14:52:06.695Z,2.73
2018-09-01T14:54:34.350Z,4.67
2018-09-01T14:57:01.998Z,3.17
2018-09-01T14:59:29.976Z,4.33
2018-09-01T15:01:57.599Z,5.47
2018-09-01T15:04:25.271Z,2.53
2018-09-01T15:06:53.188Z,4.00
2018-09-01T15:09:20.838Z,2.53
2018-09-01T15:11:48.682Z,3.80
2018-09-01T15:14:16.471Z,4.47
2018-09-01T15:16:44.083Z,5.47
2018-09-01T15:19:12.219Z,5.23
2018-09-01T15:21:39.866Z,3.73
2018-09-01T15:24:07.706Z,2.13
2018-09-01T15:26:35.647Z,4.80
2018-09-01T15:29:03.314Z,3.27
2018-09-01T15:31:31.047Z,1.70
2018-09-01T15:33:58.807Z,2.20
2018-09-01T15:36:26.547Z,3.43
2018-09-01T15:38:54.311Z,2.30
2018-09-01T15:41:22.104Z,3.20
2018-09-01T15:43:49.860Z,4.20
2018-09-01T15:46:17.602Z,2.43
2018-09-01T15:48:45.427Z,2.77
2018-09-01T15:51:13.097Z,3.53
2018-09-01T15:53:41.084Z,5.40
2018-09-01T15:56:08.911Z,4.70
2018-09-01T15:58:36.738Z,4.40
2018-09-01T16:01:04.460Z,7.63
2018-09-01T16:03:38.076Z,3.83
2018-09-01T16:06:05.837Z,5.73
2018-09-01T16:08:33.527Z,3.77
2018-09-01T16:11:01.275Z,5.13
2018-09-01T16:13:28.966Z,4.13
2018-09-01T16:15:56.854Z,2.33
2018-09-01T16:18:24.879Z,3.73
2018-09-01T16:20:52.591Z,2.67
2018-09-01T16:23:20.279Z,2.97
2018-09-01T16:25:47.959Z,5.37
2018-09-01T16:28:15.678Z,2.80
2018-09-01T16:30:43.371Z,2.87
2018-09-01T16:33:11.074Z,4.40
2018-09-01T16:35:38.860Z,1.97
2018-09-01T16:38:06.780Z,4.13
2018-09-01T16:40:34.407Z,5.67
2018-09-01T16:43:02.059Z,3.63
2018-09-01T16:45:29.847Z,2.20
2018-09-01T16:47:57.784Z,3.53
2018-09-01T16:50:25.432Z,3.70
2018-09-01T16:52:53.483Z,3.47
2018-09-01T16:55:21.206Z,3.23
2018-09-01T16:57:48.929Z,5.27
2018-09-01T17:00:16.562Z,5.80
2018-09-01T17:02:44.228Z,4.33
2018-09-01T17:05:11.880Z,4.10
2018-09-01T17:07:39.980Z,3.87
2018-09-01T17:10:07.692Z,4.27
2018-09-01T17:12:35.488Z,3.90
2018-09-01T17:15:03.292Z,2.47
2018-09-01T17:17:31.055Z,5.47
2018-09-01T17:19:58.739Z,3.37
2018-09-01T17:22:26.470Z,3.37
2018-09-01T17:24:54.107Z,3.60
2018-09-01T17:27:21.975Z,3.73
2018-09-01T17:29:49.667Z,2.23
2018-09-01T17:32:17.410Z,3.77
2018-09-01T17:34:45.410Z,5.40
2018-09-01T17:37:13.096Z,8.07
2018-09-01T17:39:40.814Z,11.17
2018-09-01T17:42:08.688Z,31.00
2018-09-01T17:44:36.388Z,32.77
2018-09-01T17:47:04.476Z,13.20
2018-09-01T17:49:32.540Z,12.03
2018-09-01T17:52:00.216Z,9.83
2018-09-01T17:54:28.580Z,3.67
2018-09-01T17:56:56.308Z,2.30
2018-09-01T17:59:23.976Z,4.07
2018-09-01T18:01:51.859Z,3.67
2018-09-01T18:04:19.583Z,2.87
2018-09-01T18:06:47.386Z,5.70
2018-09-01T18:09:15.158Z,5.30
2018-09-01T18:11:43.064Z,4.87
2018-09-01T18:14:10.923Z,6.60
2018-09-01T18:16:38.632Z,3.73
2018-09-01T18:19:06.544Z,5.70
2018-09-01T18:21:34.773Z,6.17
2018-09-01T18:24:02.467Z,5.83
2018-09-01T18:26:30.586Z,5.17
2018-09-01T18:28:58.279Z,4.53
2018-09-01T18:31:26.108Z,5.00
2018-09-01T18:33:54.134Z,7.27
2018-09-01T18:36:22.196Z,7.63
2018-09-01T18:38:50.264Z,4.67
2018-09-01T18:41:18.004Z,4.93
2018-09-01T18:43:45.877Z,7.80
2018-09-01T18:46:13.776Z,4.67
2018-09-01T18:48:41.520Z,7.07
2018-09-01T18:51:09.330Z,6.13
2018-09-01T18:53:37.059Z,6.00
2018-09-01T18:56:04.844Z,5.67
2018-09-01T18:58:32.732Z,3.40
2018-09-01T19:01:00.637Z,5.07
2018-09-01T19:03:28.403Z,5.73
2018-09-01T19:05:56.333Z,5.60
2018-09-01T19:08:24.111Z,5.07
2018-09-01T19:10:52.039Z,4.23
2018-09-01T19:13:19.791Z,4.80
2018-09-01T19:15:47.735Z,5.57
2018-09-01T19:18:15.459Z,4.33
2018-09-01T19:20:43.549Z,4.30
2018-09-01T19:23:11.295Z,4.03
2018-09-01T19:25:39.151Z,5.07
2018-09-01T19:28:07.098Z,2.57
2018-09-01T19:30:34.987Z,3.63
2018-09-01T19:33:02.748Z,3.27
2018-09-01T19:35:30.601Z,4.50
2018-09-01T19:37:58.456Z,4.27
2018-09-01T19:40:26.143Z,4.40
2018-09-01T19:42:54.077Z,5.03
2018-09-01T19:45:21.965Z,4.53
2018-09-01T19:47:49.780Z,3.30
2018-09-01T19:50:17.384Z,4.07
2018-09-01T19:52:45.027Z,3.17
2018-09-01T19:55:12.759Z,7.77
2018-09-01T19:57:40.640Z,4.83
2018-09-01T20:00:08.511Z,2.43
2018-09-01T20:02:36.293Z,6.07
2018-09-01T20:05:04.264Z,6.33
2018-09-01T20:07:31.929Z,4.00
2018-09-01T20:09:59.732Z,4.33
2018-09-01T20:12:27.438Z,3.80
2018-09-01T20:14:55.237Z,3.23
2018-09-01T20:17:23.288Z,5.00
2018-09-01T20:19:51.128Z,4.80
2018-09-01T20:22:18.997Z,4.63
2018-09-01T20:24:47.007Z,4.83
2018-09-01T20:27:14.928Z,4.57
2018-09-01T20:29:42.658Z,3.27
2018-09-01T20:32:10.617Z,2.23
2018-09-01T20:34:44.047Z,3.80
2018-09-01T20:37:11.730Z,3.37
2018-09-01T20:39:39.553Z,5.43
2018-09-01T20:42:07.357Z,7.33
2018-09-01T20:44:35.099Z,5.27
2018-09-01T20:47:03.303Z,4.87
2018-09-01T20:49:30.988Z,6.07
2018-09-01T20:51:58.881Z,4.27
2018-09-01T20:54:26.459Z,4.47
2018-09-01T20:56:54.370Z,4.70
2018-09-01T20:59:22.337Z,5.23
2018-09-01T21:01:50.327Z,4.23
2018-09-01T21:04:18.085Z,5.60
2018-09-01T21:06:45.647Z,5.83
2018-09-01T21:09:13.274Z,3.73
2018-09-01T21:11:41.736Z,6.20
2018-09-01T21:14:10.019Z,5.13
2018-09-01T21:16:37.927Z,4.13
2018-09-01T21:19:06.031Z,4.83
2018-09-01T21:21:33.887Z,6.20
2018-09-01T21:24:02.015Z,5.70
2018-09-01T21:26:30.172Z,6.60
2018-09-01T21:28:57.791Z,3.47
2018-09-01T21:31:25.587Z,3.27
2018-09-01T21:33:53.355Z,5.00
2018-09-01T21:36:21.555Z,5.40
2018-09-01T21:38:49.418Z,5.43
2018-09-01T21:41:17.462Z,6.20
2018-09-01T21:43:45.642Z,6.00
2018-09-01T21:46:13.638Z,4.33
2018-09-01T21:48:56.914Z,6.07
2018-09-01T21:51:24.642Z,5.17
2018-09-01T21:53:52.657Z,6.67
2018-09-01T21:56:20.562Z,5.17
2018-09-01T21:58:48.443Z,6.10
2018-09-01T22:01:21.991Z,4.83
2018-09-01T22:03:49.822Z,6.27
2018-09-01T22:06:18.704Z,6.40
2018-09-01T22:08:46.642Z,11.53
2018-09-01T22:11:14.737Z,6.87
2018-09-01T22:13:42.533Z,5.13
2018-09-01T22:16:10.390Z,7.20
2018-09-01T22:18:38.097Z,6.40
2018-09-01T22:21:06.048Z,6.37
2018-09-01T22:23:34.197Z,4.40
2018-09-01T22:26:02.051Z,6.47
2018-09-01T22:28:30.861Z,5.10
2018-09-01T22:30:58.580Z,7.47
2018-09-01T22:33:26.854Z,7.63
2018-09-01T22:35:54.571Z,6.40
2018-09-01T22:38:22.470Z,6.70
2018-09-01T22:40:50.190Z,5.37
2018-09-01T22:43:18.063Z,4.77
2018-09-01T22:45:45.823Z,7.57
2018-09-01T22:48:13.611Z,6.80
2018-09-01T22:50:41.306Z,6.03
2018-09-01T22:53:09.070Z,5.60
2018-09-01T22:55:36.783Z,6.90
2018-09-01T22:58:04.583Z,10.40
2018-09-01T23:00:32.392Z,5.50
2018-09-01T23:03:01.039Z,3.07
2018-09-01T23:05:29.167Z,3.93
2018-09-01T23:07:56.973Z,4.70
2018-09-01T23:10:25.072Z,6.23
2018-09-01T23:12:52.822Z,7.43
2018-09-01T23:15:20.506Z,3.73
2018-09-01T23:17:48.240Z,4.80
2018-09-01T23:20:16.608Z,3.27
2018-09-01T23:22:44.331Z,4.43
2018-09-01T23:25:12.172Z,4.90
2018-09-01T23:27:39.859Z,4.33
2018-09-01T23:30:07.660Z,3.53
2018-09-01T23:32:35.426Z,6.93
2018-09-01T23:35:03.172Z,6.53
2018-09-01T23:37:30.955Z,4.47
2018-09-01T23:39:58.731Z,6.60
2018-09-01T23:42:26.526Z,4.50
2018-09-01T23:44:54.513Z,5.33
2018-09-01T23:47:22.235Z,4.67
2018-09-01T23:49:49.973Z,5.53
2018-09-01T23:52:18.432Z,4.20
2018-09-01T23:54:46.310Z,5.60
2018-09-01T23:57:14.175Z,6.43
2018-09-01T23:59:42.221Z,7.20
